Time;durP1;ratioP1;P1;durP2;ratioP2;P2;SDS_P1;SDS_P2;PMS_P1;PMS_P2;Temp;Humidity;BMP_temperature;BMP_pressure;BME280_temperature;BME280_humidity;BME280_pressure;Samples;Min_cycle;Max_cycle;Signal;HPM_P1;HPM_P2
2021/05/23 00:02:06;;;;;;;6.57;3.58;;;;;;;10.75;80.60;100391.72;6192998;28;20297;-70
2021/05/23 00:05:15;;;;;;;6.45;3.65;;;;;;;10.69;80.88;100387.16;6206873;28;20257;-71
2021/05/23 00:08:21;;;;;;;4.50;3.33;;;;;;;10.62;81.44;100394.63;6193242;28;20187;-70
2021/05/23 00:11:24;;;;;;;6.20;3.70;;;;;;;10.67;81.56;100395.59;6193216;28;20190;-70
2021/05/23 00:14:28;;;;;;;7.93;3.67;;;;;;;10.64;82.07;100395.22;6191824;28;20435;-71
2021/05/23 00:17:32;;;;;;;7.18;3.92;;;;;;;10.66;81.51;100398.53;6192748;28;20233;-70
2021/05/23 00:20:37;;;;;;;12.00;5.35;;;;;;;10.64;81.32;100395.22;6192538;28;20221;-71
2021/05/23 00:23:41;;;;;;;5.15;3.92;;;;;;;10.64;81.28;100396.06;6191908;28;20310;-71
2021/05/23 00:26:45;;;;;;;9.63;4.10;;;;;;;10.57;81.48;100405.38;6191521;28;20187;-71
2021/05/23 00:29:48;;;;;;;6.97;3.50;;;;;;;10.62;81.55;100400.06;6191818;28;20191;-71
2021/05/23 00:32:52;;;;;;;5.20;4.05;;;;;;;10.57;81.65;100405.38;6191403;28;20470;-71
2021/05/23 00:35:57;;;;;;;8.20;3.97;;;;;;;10.81;80.74;100404.44;6191403;28;20356;-71
2021/05/23 00:39:01;;;;;;;4.85;3.60;;;;;;;10.57;81.25;100387.13;6190715;28;20470;-72
2021/05/23 00:42:09;;;;;;;5.53;3.83;;;;;;;10.76;81.21;100398.84;6192180;28;20215;-71
2021/05/23 00:45:15;;;;;;;4.93;3.95;;;;;;;10.76;80.68;100393.38;6191144;28;20471;-71
2021/05/23 00:48:21;;;;;;;5.28;4.28;;;;;;;10.69;81.17;100395.38;6192405;28;20190;-72
2021/05/23 00:51:26;;;;;;;7.25;4.00;;;;;;;10.70;81.53;100394.31;6191058;28;20365;-72
2021/05/23 00:54:30;;;;;;;4.40;3.85;;;;;;;10.63;81.70;100404.47;6192252;28;20194;-71
2021/05/23 00:57:34;;;;;;;7.72;3.78;;;;;;;10.65;81.43;100396.88;6191252;28;20254;-71
2021/05/23 01:01:11;;;;;;;11.15;3.72;;;;;;;10.78;80.34;100391.28;6190618;28;20265;-71
2021/05/23 01:04:15;;;;;;;8.68;4.20;;;;;;;10.59;81.55;100393.19;6181956;23;20238;-72
2021/05/23 01:07:20;;;;;;;3.88;3.60;;;;;;;10.58;81.98;100390.66;6167859;29;20187;-71
2021/05/23 01:10:27;;;;;;;9.50;4.13;;;;;;;10.40;82.18;100372.41;6167587;29;20192;-71
2021/05/23 01:14:15;;;;;;;8.07;4.20;;;;;;;10.70;81.15;100394.31;6167763;29;20195;-71
2021/05/23 01:17:23;;;;;;;4.78;4.35;;;;;;;10.59;81.24;100397.78;6152882;29;20541;-70
2021/05/23 01:20:41;;;;;;;4.75;4.30;;;;;;;10.71;79.98;100390.50;6166067;29;20414;-70
2021/05/23 01:23:48;;;;;;;7.35;4.50;;;;;;;10.67;80.41;100392.03;6166303;28;20227;-71
2021/05/23 01:26:54;;;;;;;7.05;4.60;;;;;;;10.68;80.45;100397.25;6167549;28;20187;-71
2021/05/23 01:30:00;;;;;;;4.72;4.20;;;;;;;10.85;79.66;100397.47;6165990;29;20496;-70
2021/05/23 01:33:07;;;;;;;5.38;4.65;;;;;;;9.82;81.05;100281.19;6165914;29;20479;-71
2021/05/23 01:36:11;;;;;;;8.23;5.20;;;;;;;10.58;81.36;100396.13;6165911;29;20188;-71
2021/05/23 01:39:15;;;;;;;11.70;4.97;;;;;;;10.49;81.05;100359.31;6165843;29;20351;-72
2021/05/23 01:42:22;;;;;;;8.57;4.32;;;;;;;10.71;80.03;100390.50;6166782;29;20215;-71
2021/05/23 01:45:27;;;;;;;7.53;4.63;;;;;;;10.76;79.84;100387.91;6165640;29;20187;-71
2021/05/23 01:48:36;;;;;;;4.90;4.55;;;;;;;10.73;79.24;100393.84;6165631;29;20212;-71
2021/05/23 01:51:39;;;;;;;5.63;5.13;;;;;;;10.70;79.58;100394.31;6165711;29;20192;-71
2021/05/23 01:54:44;;;;;;;6.63;4.75;;;;;;;10.59;79.38;100389.59;6165507;29;20352;-71
2021/05/23 01:57:49;;;;;;;5.25;4.28;;;;;;;10.56;79.88;100398.25;6166507;29;20295;-71
2021/05/23 02:00:53;;;;;;;7.50;4.78;;;;;;;10.47;79.95;100399.63;6166212;29;20211;-71
2021/05/23 02:04:01;;;;;;;8.73;4.70;;;;;;;10.16;81.92;100397.84;6165504;29;20243;-71
2021/05/23 02:07:05;;;;;;;5.47;4.70;;;;;;;10.32;81.28;100390.97;6165359;29;20390;-71
2021/05/23 02:10:13;;;;;;;6.43;5.38;;;;;;;10.22;81.85;100402.38;6166403;29;20188;-71
2021/05/23 02:13:18;;;;;;;6.68;4.85;;;;;;;10.35;81.14;100390.53;6166222;28;20192;-71
2021/05/23 02:16:22;;;;;;;10.27;5.10;;;;;;;10.09;82.83;100403.31;6166650;29;20266;-71
2021/05/23 02:19:26;;;;;;;6.10;5.45;;;;;;;10.35;81.13;100412.34;6164989;29;20195;-71
2021/05/23 02:22:29;;;;;;;11.82;5.63;;;;;;;10.28;81.40;100411.56;6165309;29;20266;-71
2021/05/23 02:25:34;;;;;;;9.80;5.22;;;;;;;10.38;80.49;100422.78;6166430;29;20187;-71
2021/05/23 02:28:40;;;;;;;14.55;5.15;;;;;;;10.33;80.46;100420.72;6165199;29;20235;-71
2021/05/23 02:31:43;;;;;;;8.90;5.07;;;;;;;10.30;80.62;100431.25;6165252;29;20250;-71
2021/05/23 02:34:49;;;;;;;5.38;4.88;;;;;;;10.37;80.20;100429.31;6165354;29;20258;-70
2021/05/23 02:37:53;;;;;;;15.32;5.03;;;;;;;10.40;80.34;100432.41;6165660;29;20266;-71
2021/05/23 02:40:57;;;;;;;6.82;4.80;;;;;;;10.29;80.67;100429.59;6165825;29;20247;-71
2021/05/23 02:44:01;;;;;;;7.47;5.00;;;;;;;10.31;80.87;100422.00;6164541;29;20528;-70
2021/05/23 02:47:06;;;;;;;10.25;5.05;;;;;;;10.16;81.20;100411.47;6165833;29;20187;-71
2021/05/23 02:50:13;;;;;;;7.45;5.32;;;;;;;10.25;81.58;100428.34;6164501;29;20203;-71
2021/05/23 02:53:18;;;;;;;7.35;5.03;;;;;;;10.41;81.00;100425.06;6164371;29;20467;-71
2021/05/23 02:56:22;;;;;;;5.32;4.85;;;;;;;10.29;81.75;100419.53;6165377;29;20235;-70
2021/05/23 02:59:26;;;;;;;7.38;4.88;;;;;;;9.81;81.59;100339.47;6164391;29;20218;-70
2021/05/23 03:02:30;;;;;;;5.63;4.95;;;;;;;10.23;81.97;100419.56;6163967;29;20580;-70
2021/05/23 03:05:34;;;;;;;6.13;5.07;;;;;;;10.31;81.39;100424.75;6165543;29;20187;-71
2021/05/23 03:08:37;;;;;;;10.75;5.63;;;;;;;10.39;81.49;100432.63;6165207;29;20227;-71
2021/05/23 03:11:41;;;;;;;6.45;4.75;;;;;;;10.28;82.37;100427.91;6164684;29;20198;-71
2021/05/23 03:14:46;;;;;;;4.93;4.63;;;;;;;10.31;82.53;100432.91;6163459;29;20258;-71
2021/05/23 03:17:50;;;;;;;5.30;4.75;;;;;;;9.97;83.49;100396.94;6165175;29;20187;-70
2021/05/23 03:20:53;;;;;;;5.65;4.75;;;;;;;10.12;83.78;100436.66;6164971;29;20191;-71
2021/05/23 03:23:58;;;;;;;7.70;5.10;;;;;;;10.24;83.68;100434.88;6164092;29;20555;-71
2021/05/23 03:27:01;;;;;;;10.77;4.88;;;;;;;10.35;82.19;100428.72;6165366;29;20235;-71
2021/05/23 03:30:10;;;;;;;8.80;5.00;;;;;;;10.65;81.17;100435.09;6163967;29;20219;-71
2021/05/23 03:33:16;;;;;;;16.42;5.32;;;;;;;10.57;82.41;100438.09;6165262;29;20270;-72
2021/05/23 03:36:20;;;;;;;5.25;4.82;;;;;;;10.53;82.43;100442.34;6165320;29;20188;-71
2021/05/23 03:39:23;;;;;;;6.63;5.50;;;;;;;10.50;83.73;100437.34;6164912;29;20187;-71
2021/05/23 03:42:27;;;;;;;5.70;5.28;;;;;;;10.27;84.94;100431.72;6165113;29;20275;-71
2021/05/23 03:45:32;;;;;;;5.82;5.25;;;;;;;10.26;85.08;100424.59;6163837;29;20188;-71
2021/05/23 03:48:36;;;;;;;9.13;5.95;;;;;;;10.04;86.10;100394.97;6165259;29;20188;-71
2021/05/23 03:51:39;;;;;;;11.02;6.93;;;;;;;10.60;85.14;100421.28;6163116;29;20207;-70
2021/05/23 03:54:43;;;;;;;11.65;6.70;;;;;;;10.85;83.73;100430.22;6163714;29;20219;-70
2021/05/23 03:57:47;;;;;;;10.20;6.93;;;;;;;10.74;84.53;100428.25;6164771;29;20187;-71
2021/05/23 04:00:52;;;;;;;11.85;7.45;;;;;;;10.62;85.47;100424.63;6163903;29;20188;-71
2021/05/23 04:03:58;;;;;;;12.18;7.97;;;;;;;10.53;86.19;100440.44;6163845;29;20243;-71
2021/05/23 04:07:02;;;;;;;15.88;8.10;;;;;;;10.70;85.56;100437.97;6163637;29;20235;-71
2021/05/23 04:10:09;;;;;;;11.88;7.18;;;;;;;10.66;85.73;100443.03;6163531;29;20383;-71
2021/05/23 04:13:13;;;;;;;10.45;7.32;;;;;;;10.90;84.50;100449.47;6165920;28;20196;-71
2021/05/23 04:16:18;;;;;;;8.23;7.05;;;;;;;10.89;84.72;100434.16;6167862;29;20408;-72
2021/05/23 04:19:22;;;;;;;12.52;8.32;;;;;;;11.02;84.53;100442.19;6168572;29;20198;-70
2021/05/23 04:22:26;;;;;;;9.98;7.18;;;;;;;11.11;83.97;100440.81;6167609;29;20514;-71
2021/05/23 04:25:30;;;;;;;10.00;6.95;;;;;;;11.15;84.05;100452.09;6168673;29;20228;-71
2021/05/23 04:28:40;;;;;;;13.32;6.88;;;;;;;11.19;84.52;100440.50;6167608;29;20181;-71
2021/05/23 04:31:45;;;;;;;7.40;6.53;;;;;;;11.21;84.11;100441.09;6168548;29;20226;-71
2021/05/23 04:34:51;;;;;;;10.80;6.70;;;;;;;11.28;84.17;100439.09;6167412;29;20479;-71
2021/05/23 04:37:57;;;;;;;12.88;7.22;;;;;;;11.43;83.44;100443.34;6167380;29;20187;-72
2021/05/23 04:41:01;;;;;;;9.85;6.93;;;;;;;11.35;83.99;100449.13;6168399;29;20187;-71
2021/05/23 04:44:06;;;;;;;;;;;;;;;11.40;84.15;100444.59;6168689;29;20215;-71
2021/05/23 04:47:11;;;;;;;;;;;;;;;11.60;83.49;100453.38;6168827;29;19918;-71
2021/05/23 04:50:15;;;;;;;;;;;;;;;11.72;82.78;100458.88;6168877;29;19995;-70
2021/05/23 04:53:18;;;;;;;8.50;5.53;;;;;;;11.72;82.88;100459.72;6167144;29;19953;-71
2021/05/23 04:56:22;;;;;;;12.02;5.32;;;;;;;11.58;83.88;100462.88;6166826;29;20243;-71
2021/05/23 04:59:26;;;;;;;5.75;5.25;;;;;;;11.62;83.90;100442.19;6166736;29;20187;-71
2021/05/23 05:02:30;;;;;;;;;;;;;;;11.64;83.67;100456.44;6166483;28;20239;-72
2021/05/23 05:05:33;;;;;;;;;;;;;;;11.58;84.28;100462.88;6168533;29;19978;-71
2021/05/23 05:08:37;;;;;;;;;;;;;;;11.65;83.85;100469.91;6167092;29;20205;-71
2021/05/23 05:11:40;;;;;;;;;;;;;;;11.65;84.46;100458.97;6166766;29;20177;-72
2021/05/23 05:14:44;;;;;;;;;;;;;;;11.65;85.15;100463.59;6167214;28;19918;-71
2021/05/23 05:17:48;;;;;;;;;;;;;;;11.76;84.33;100471.03;6168211;29;19918;-75
2021/05/23 05:20:52;;;;;;;;;;;;;;;11.62;84.92;100459.44;6182495;28;19961;-71
2021/05/23 05:23:56;;;;;;;;;;;;;;;11.67;84.23;100472.38;6167582;28;19918;-72
2021/05/23 05:26:59;;;;;;;;;;;;;;;11.66;84.37;100460.59;6167700;28;19981;-71
2021/05/23 05:30:04;;;;;;;;;;;;;;;11.91;83.99;100468.69;6167778;29;19925;-72
2021/05/23 05:33:14;;;;;;;;;;;;;;;12.17;82.89;100456.47;6167605;29;19918;-72
2021/05/23 05:36:17;;;;;;;;;;;;;;;12.22;82.33;100460.16;6166418;29;19919;-71
2021/05/23 05:39:21;;;;;;;;;;;;;;;12.50;81.18;100462.19;6166189;29;19941;-71
2021/05/23 05:42:24;;;;;;;;;;;;;;;12.36;81.14;100456.13;6167637;28;19919;-72
2021/05/23 05:45:27;;;;;;;;;;;;;;;12.08;81.70;100466.94;6167068;28;20172;-72
2021/05/23 05:48:31;;;;;;;;;;;;;;;12.38;81.08;100464.94;6167321;28;19919;-71
2021/05/23 05:51:35;;;;;;;7.47;5.20;;;;;;;12.71;79.47;100469.78;6166859;29;19918;-71
2021/05/23 05:54:39;;;;;;;7.32;5.05;;;;;;;12.83;79.04;100453.34;6165369;29;20191;-70
2021/05/23 05:57:42;;;;;;;8.18;4.82;;;;;;;12.88;79.28;100469.88;6166429;28;20195;-71
2021/05/23 06:00:46;;;;;;;7.40;4.90;;;;;;;13.07;78.60;100458.56;6166491;29;20191;-71
2021/05/23 06:03:50;;;;;;;5.32;4.93;;;;;;;12.91;78.85;100461.19;6165477;29;20270;-71
2021/05/23 06:06:54;;;;;;;6.65;4.85;;;;;;;12.88;77.78;100458.94;6165286;29;20382;-70
2021/05/23 06:09:58;;;;;;;5.15;4.65;;;;;;;13.13;79.35;100462.25;6165704;29;20200;-71
2021/05/23 06:13:04;;;;;;;8.15;4.80;;;;;;;13.33;77.16;100450.88;6164866;29;20478;-71
2021/05/23 06:16:07;;;;;;;4.40;3.70;;;;;;;13.55;76.10;100449.94;6166025;29;20187;-71
2021/05/23 06:19:12;;;;;;;7.03;3.75;;;;;;;13.55;75.70;100438.97;6164723;29;20188;-71
2021/05/23 06:22:16;;;;;;;4.43;4.00;;;;;;;13.75;75.05;100461.28;6165862;29;20188;-71
2021/05/23 06:25:19;;;;;;;7.95;4.20;;;;;;;13.78;75.19;100466.25;6164674;29;20219;-70
2021/05/23 06:28:23;;;;;;;7.60;4.28;;;;;;;13.88;75.13;100467.50;6165968;29;20187;-70
2021/05/23 06:31:27;;;;;;;4.45;3.50;;;;;;;13.98;74.84;100470.44;6165005;28;20219;-71
2021/05/23 06:34:32;;;;;;;4.30;3.70;;;;;;;14.18;73.00;100476.25;6165475;29;20191;-70
2021/05/23 06:37:36;;;;;;;4.40;3.30;;;;;;;14.06;73.40;100470.03;6163918;28;20188;-71
2021/05/23 06:40:40;;;;;;;4.70;3.05;;;;;;;14.18;72.63;100471.59;6164647;29;20188;-72
2021/05/23 06:43:43;;;;;;;4.30;3.38;;;;;;;14.14;73.13;100475.94;6165754;29;20250;-72
2021/05/23 06:46:48;;;;;;;3.92;3.10;;;;;;;13.99;72.34;100483.06;6164438;29;20381;-70
2021/05/23 06:49:53;;;;;;;5.43;3.28;;;;;;;13.93;73.24;100484.06;6165409;29;20290;-71
2021/05/23 06:52:57;;;;;;;8.88;3.33;;;;;;;14.08;72.98;100487.06;6164104;29;20191;-72
2021/05/23 06:56:01;;;;;;;3.80;3.20;;;;;;;14.22;72.64;100488.41;6164114;29;20188;-70
2021/05/23 06:59:05;;;;;;;3.78;2.85;;;;;;;14.30;72.05;100491.56;6165082;29;20195;-71
2021/05/23 07:02:09;;;;;;;3.58;2.70;;;;;;;14.35;70.71;100510.06;6164369;29;20203;-71
2021/05/23 07:05:14;;;;;;;4.65;2.88;;;;;;;14.39;71.12;100511.22;6164927;29;20215;-71
2021/05/23 07:08:19;;;;;;;3.30;2.60;;;;;;;14.49;70.57;100505.88;6165046;28;20188;-70
2021/05/23 07:11:23;;;;;;;4.60;2.50;;;;;;;14.53;70.31;100512.56;6164774;29;20223;-70
2021/05/23 07:14:29;;;;;;;4.18;2.60;;;;;;;14.59;69.33;100506.03;6164038;29;20192;-71
2021/05/23 07:17:32;;;;;;;3.40;2.58;;;;;;;14.70;68.52;100513.38;6164777;29;20187;-71
2021/05/23 07:20:37;;;;;;;4.25;2.38;;;;;;;14.77;69.41;100508.53;6164944;29;20234;-71
2021/05/23 07:23:41;;;;;;;5.70;2.95;;;;;;;15.00;68.48;100502.81;6164098;29;20239;-71
2021/05/23 07:26:45;;;;;;;2.63;2.53;;;;;;;15.07;67.91;100510.03;6163471;28;20235;-71
2021/05/23 07:29:49;;;;;;;3.33;2.10;;;;;;;15.09;66.89;100516.13;6164164;29;20243;-71
2021/05/23 07:32:52;;;;;;;2.28;2.17;;;;;;;15.10;65.67;100520.53;6167098;29;20187;-71
2021/05/23 07:35:57;;;;;;;3.30;2.38;;;;;;;15.04;66.42;100514.97;6164789;29;20187;-71
2021/05/23 07:39:01;;;;;;;5.63;2.10;;;;;;;15.12;65.05;100515.59;6164151;29;20269;-71
2021/05/23 07:42:05;;;;;;;2.42;2.00;;;;;;;15.19;64.91;100513.50;6164888;28;20188;-71
2021/05/23 07:45:12;;;;;;;3.70;2.03;;;;;;;15.28;63.66;100525.72;6164445;29;20222;-71
2021/05/23 07:48:16;;;;;;;2.78;1.80;;;;;;;15.28;62.85;100526.53;6164558;28;20341;-71
2021/05/23 07:51:20;;;;;;;2.75;1.90;;;;;;;15.49;62.66;100516.66;6168821;29;20230;-70
2021/05/23 07:54:24;;;;;;;3.70;2.15;;;;;;;15.56;61.63;100520.06;6167645;29;20365;-71
2021/05/23 07:57:28;;;;;;;5.78;1.75;;;;;;;15.68;61.70;100519.91;6168452;29;20187;-70
2021/05/23 08:00:32;;;;;;;3.25;1.73;;;;;;;15.83;63.42;100518.16;6168401;29;20293;-71
2021/05/23 08:03:35;;;;;;;1.80;1.65;;;;;;;15.77;61.22;100519.19;6167274;29;20425;-70
2021/05/23 08:06:40;;;;;;;3.75;1.73;;;;;;;15.75;61.81;100521.38;6167798;29;20194;-71
2021/05/23 08:09:44;;;;;;;4.03;1.67;;;;;;;15.70;61.07;100523.22;6167184;29;20442;-71
2021/05/23 08:12:48;;;;;;;5.13;1.90;;;;;;;15.82;61.20;100515.69;6167980;29;20199;-72
2021/05/23 08:15:52;;;;;;;4.15;1.80;;;;;;;15.98;60.49;100521.06;6168291;28;20192;-72
2021/05/23 08:18:56;;;;;;;4.57;1.85;;;;;;;15.95;60.18;100518.81;6168367;29;20226;-71
2021/05/23 08:22:00;;;;;;;2.00;1.50;;;;;;;15.87;59.90;100530.28;6167296;29;20351;-71
2021/05/23 08:25:07;;;;;;;2.10;1.63;;;;;;;16.15;61.12;100521.75;6166867;29;20216;-71
2021/05/23 08:28:12;;;;;;;1.65;1.40;;;;;;;16.20;58.01;100532.81;6167241;29;20192;-71
2021/05/23 08:31:16;;;;;;;1.65;1.30;;;;;;;15.96;56.39;100501.22;6183080;28;20211;-71
2021/05/23 08:34:22;;;;;;;1.40;1.40;;;;;;;16.26;57.46;100526.28;6168283;29;20191;-71
2021/05/23 08:37:27;;;;;;;5.70;1.52;;;;;;;16.36;56.21;100528.28;6168251;29;20195;-71
2021/05/23 08:40:31;;;;;;;4.20;2.10;;;;;;;16.32;55.52;100526.31;6166838;29;20227;-71
2021/05/23 08:43:34;;;;;;;2.00;1.73;;;;;;;16.28;56.06;100532.34;6167351;29;20188;-71
2021/05/23 08:46:39;;;;;;;;;;;;;;;16.39;54.83;100532.44;6168472;29;20170;-71
2021/05/23 08:49:42;;;;;;;;;;;;;;;16.24;53.82;100539.47;6167110;29;19960;-70
2021/05/23 08:52:53;;;;;;;;;;;;;;;16.28;54.61;100537.00;6168426;29;19954;-71
2021/05/23 08:55:56;;;;;;;;;;;;;;;16.40;55.26;100534.09;6167630;28;19961;-71
2021/05/23 08:58:59;;;;;;;;;;;;;;;16.24;54.92;100536.72;6167403;28;19953;-71
2021/05/23 09:02:04;;;;;;;;;;;;;;;16.29;54.81;100550.53;6167418;28;19919;-72
2021/05/23 09:05:11;;;;;;;;;;;;;;;16.25;55.64;100541.13;6166455;29;20154;-71
2021/05/23 09:08:18;;;;;;;;;;;;;;;16.42;54.88;100541.00;6166486;29;20120;-71
2021/05/23 09:11:23;;;;;;;5.70;1.30;;;;;;;16.43;51.86;100552.88;6167480;29;19918;-71
2021/05/23 09:14:31;;;;;;;1.20;1.20;;;;;;;16.36;53.48;100550.31;6166515;28;20309;-71
2021/05/23 09:17:35;;;;;;;2.03;1.50;;;;;;;16.47;53.31;100551.22;6167505;29;20192;-70
2021/05/23 09:20:40;;;;;;;;;;;;;;;16.41;52.61;100557.81;6166182;29;20526;-71
2021/05/23 09:23:46;;;;;;;;;;;;;;;16.64;53.57;100547.28;6166164;29;20052;-71
2021/05/23 09:26:50;;;;;;;;;;;;;;;16.50;52.72;100556.22;6167541;29;20023;-70
2021/05/23 09:30:01;;;;;;;;;;;;;;;16.62;52.67;100554.97;6167345;29;19958;-71
2021/05/23 09:33:07;;;;;;;;;;;;;;;16.63;52.23;100555.81;6167914;29;19981;-72
2021/05/23 09:36:10;;;;;;;;;;;;;;;16.65;51.68;100570.97;6167437;29;19977;-72
2021/05/23 09:39:15;;;;;;;;;;;;;;;16.75;51.57;100560.03;6166116;29;20201;-72
2021/05/23 09:42:19;;;;;;;;;;;;;;;16.73;50.81;100555.88;6167142;29;19953;-72
2021/05/23 09:45:23;;;;;;;;;;;;;;;16.77;50.92;100557.84;6166925;29;19994;-71
2021/05/23 09:48:27;;;;;;;;;;;;;;;16.73;51.14;100561.41;6166410;29;19953;-71
2021/05/23 09:51:31;;;;;;;;;;;;;;;16.92;50.77;100559.91;6166366;29;19918;-72
2021/05/23 09:54:47;;;;;;;4.10;1.10;;;;;;;17.06;49.72;100550.06;6165853;28;19941;-72
2021/05/23 09:57:51;;;;;;;;;;;;;;;17.08;49.90;100552.53;6165383;29;20420;-70
2021/05/23 10:00:54;;;;;;;1.43;1.30;;;;;;;17.07;47.99;100557.22;6165469;29;19918;-72
2021/05/23 10:04:00;;;;;;;1.23;1.20;;;;;;;17.32;48.56;100549.09;6164379;29;20564;-71
2021/05/23 10:07:06;;;;;;;4.20;1.60;;;;;;;17.27;48.09;100562.88;6165821;29;20188;-72
2021/05/23 10:10:12;;;;;;;;;;;;;;;17.32;47.97;100557.38;6165716;28;19922;-73
2021/05/23 10:13:19;;;;;;;;;;;;;;;17.37;48.49;100562.91;6166260;29;20035;-73
2021/05/23 10:16:23;;;;;;;;;;;;;;;17.39;49.21;100560.72;6166671;29;19918;-72
2021/05/23 10:19:27;;;;;;;;;;;;;;;17.33;49.53;100561.78;6166551;29;19918;-72
2021/05/23 10:22:33;;;;;;;;;;;;;;;17.41;49.55;100566.78;6165900;29;19921;-73
2021/05/23 10:25:45;;;;;;;3.75;1.30;;;;;;;17.40;49.59;100567.91;6164722;29;20238;-72
2021/05/23 10:28:50;;;;;;;2.75;1.30;;;;;;;17.42;48.92;100562.09;6165800;29;20223;-72
2021/05/23 10:32:05;;;;;;;1.95;1.00;;;;;;;17.48;47.44;100564.63;6165357;29;20282;-72
2021/05/23 10:35:14;;;;;;;1.33;1.23;;;;;;;17.29;47.66;100565.34;6163463;29;20192;-73
2021/05/23 10:38:21;;;;;;;2.72;1.33;;;;;;;17.10;46.82;100573.22;6164392;29;20386;-72
2021/05/23 10:41:25;;;;;;;2.90;1.10;;;;;;;17.19;47.28;100579.91;6165550;29;20192;-73
2021/05/23 10:44:43;;;;;;;1.98;1.30;;;;;;;17.04;46.54;100579.81;6164598;29;20287;-74
2021/05/23 10:47:47;;;;;;;5.07;1.27;;;;;;;17.20;47.42;100573.31;6165170;29;20263;-72
2021/05/23 10:50:50;;;;;;;1.50;1.40;;;;;;;17.38;47.72;100580.28;6164306;29;20206;-72
2021/05/23 10:53:55;;;;;;;1.67;1.55;;;;;;;17.49;46.52;100585.59;6165491;29;20192;-73
2021/05/23 10:57:00;;;;;;;1.80;1.40;;;;;;;17.43;47.40;100583.06;6164162;29;20258;-72
2021/05/23 11:00:05;;;;;;;1.48;1.20;;;;;;;17.47;46.65;100585.03;6164225;29;20499;-72
2021/05/23 11:03:19;;;;;;;1.20;1.20;;;;;;;17.36;46.97;100588.81;6164496;29;20239;-72
2021/05/23 11:06:22;;;;;;;4.00;1.10;;;;;;;17.23;47.47;100583.78;6163962;29;20330;-73
2021/05/23 11:09:35;;;;;;;1.27;1.10;;;;;;;17.02;45.81;100581.19;6164058;29;20479;-72
2021/05/23 11:12:48;;;;;;;3.15;1.73;;;;;;;17.15;46.15;100597.25;6165212;28;20188;-73
2021/05/23 11:15:53;;;;;;;1.15;1.15;;;;;;;17.11;47.14;100591.44;6164832;29;20213;-73
2021/05/23 11:19:03;;;;;;;1.08;1.05;;;;;;;17.25;46.94;100589.88;6178853;28;20549;-73
2021/05/23 11:22:08;;;;;;;2.03;1.17;;;;;;;17.23;46.79;100583.78;6164797;28;20250;-73
2021/05/23 11:25:13;;;;;;;1.33;1.17;;;;;;;17.19;48.16;100582.66;6168205;29;20417;-73
2021/05/23 11:28:21;;;;;;;1.30;1.08;;;;;;;16.86;47.74;100555.44;6168866;29;20235;-72
2021/05/23 11:31:27;;;;;;;2.78;1.10;;;;;;;17.01;47.32;100594.13;6169628;29;20188;-73
2021/05/23 11:34:30;;;;;;;1.40;1.25;;;;;;;16.93;47.12;100591.84;6169238;29;20225;-73
2021/05/23 11:37:39;;;;;;;1.10;1.10;;;;;;;16.84;46.52;100580.50;6169564;29;20187;-74
2021/05/23 11:40:44;;;;;;;;;;;;;;;16.85;46.93;100603.34;6169802;29;20192;-73
2021/05/23 11:43:55;;;;;;;2.15;1.55;;;;;;;16.94;46.92;100609.22;6183233;28;19918;-72
2021/05/23 11:46:59;;;;;;;;;;;;;;;17.12;46.84;100606.88;6169862;29;20185;-73
2021/05/23 11:50:03;;;;;;;;;;;;;;;17.20;47.02;100606.38;6169628;29;19924;-72
2021/05/23 11:53:08;;;;;;;;;;;;;;;17.12;45.70;100615.16;6168220;29;19918;-73
2021/05/23 11:56:13;;;;;;;;;;;;;;;17.12;45.62;100615.16;6169384;29;19926;-73
2021/05/23 11:59:18;;;;;;;;;;;;;;;17.31;45.74;100613.59;6168159;28;20232;-73
2021/05/23 12:02:27;;;;;;;;;;;;;;;17.47;45.25;100596.06;6168935;28;19958;-73
2021/05/23 12:05:40;;;;;;;;;;;;;;;17.51;45.60;100608.19;6168989;29;19926;-73
2021/05/23 12:08:44;;;;;;;;;;;;;;;17.48;45.28;100608.75;6168354;29;19961;-73
2021/05/23 12:11:50;;;;;;;;;;;;;;;17.56;45.72;100614.88;6168562;29;19923;-73
2021/05/23 12:14:54;;;;;;;;;;;;;;;17.68;46.45;100618.25;6167970;29;19969;-73
2021/05/23 12:17:57;;;;;;;1.85;1.15;;;;;;;17.58;46.04;100601.66;6167668;29;20197;-73
2021/05/23 12:21:01;;;;;;;2.35;1.63;;;;;;;17.64;46.53;100606.09;6168117;29;20205;-73
2021/05/23 12:24:06;;;;;;;1.23;1.23;;;;;;;17.79;47.74;100608.94;6168298;29;20198;-72
2021/05/23 12:27:15;;;;;;;;;;;;;;;17.88;48.04;100612.81;6168637;29;19919;-73
2021/05/23 12:30:20;;;;;;;;;;;;;;;17.64;47.10;100626.22;6167420;28;19924;-73
2021/05/23 12:33:25;;;;;;;;;;;;;;;17.83;46.14;100624.66;6166322;28;20145;-74
2021/05/23 12:36:29;;;;;;;2.15;1.10;;;;;;;17.77;46.57;100627.69;6168549;29;19922;-75
2021/05/23 12:39:51;;;;;;;1.42;1.30;;;;;;;17.29;47.32;100595.66;6167856;29;20231;-74
2021/05/23 12:43:09;;;;;;;4.78;1.38;;;;;;;17.69;47.87;100636.47;6165852;29;20561;-72
2021/05/23 12:46:15;;;;;;;1.83;1.45;;;;;;;17.74;47.87;100622.69;6167710;28;20223;-72
2021/05/23 12:49:21;;;;;;;3.78;1.17;;;;;;;17.84;48.13;100633.78;6166403;28;20187;-73
2021/05/23 12:52:25;;;;;;;25.30;17.83;;;;;;;17.38;48.52;100641.75;6166424;29;20192;-73
2021/05/23 12:55:30;;;;;;;3.70;1.38;;;;;;;17.46;48.11;100633.00;6167276;29;20222;-71
2021/05/23 12:58:43;;;;;;;2.42;1.23;;;;;;;17.68;48.04;100634.81;6167363;29;20268;-73
2021/05/23 13:01:49;;;;;;;1.38;1.38;;;;;;;17.64;48.96;100633.69;6167277;29;20247;-73
2021/05/23 13:05:00;;;;;;;1.10;1.10;;;;;;;17.85;47.46;100635.44;6167119;29;20231;-73
2021/05/23 13:08:15;;;;;;;2.55;1.25;;;;;;;17.94;47.39;100629.13;6167194;29;20219;-73
2021/05/23 13:11:20;;;;;;;1.98;1.20;;;;;;;17.96;47.61;100637.13;6167555;29;20195;-72
2021/05/23 13:14:26;;;;;;;2.15;1.10;;;;;;;17.78;48.12;100629.31;6167601;29;20243;-72
2021/05/23 13:17:34;;;;;;;1.90;1.38;;;;;;;17.85;48.22;100638.19;6165999;29;20507;-73
2021/05/23 13:20:39;;;;;;;1.42;1.30;;;;;;;18.00;47.15;100630.00;6166920;28;20243;-73
2021/05/23 13:23:45;;;;;;;1.15;1.13;;;;;;;18.10;47.19;100635.53;6167234;29;20227;-72
2021/05/23 13:26:51;;;;;;;3.58;1.00;;;;;;;17.97;47.71;100627.75;6167271;29;20247;-72
2021/05/23 13:29:54;;;;;;;3.97;1.00;;;;;;;17.93;47.96;100643.19;6166839;29;20275;-72
2021/05/23 13:32:59;;;;;;;1.10;1.10;;;;;;;18.33;47.13;100610.19;6165595;29;20194;-73
2021/05/23 13:36:07;;;;;;;1.30;1.00;;;;;;;18.28;45.02;100629.53;6165615;29;20191;-73
2021/05/23 13:39:13;;;;;;;1.77;1.10;;;;;;;18.11;45.34;100651.00;6166430;29;20195;-73
2021/05/23 13:42:19;;;;;;;2.92;0.90;;;;;;;17.81;45.61;100623.28;6167143;29;20211;-73
2021/05/23 13:45:23;;;;;;;2.15;1.00;;;;;;;18.01;45.58;100645.44;6165423;28;20493;-72
2021/05/23 13:48:28;;;;;;;1.65;0.93;;;;;;;18.11;46.46;100645.47;6166471;29;20283;-72
2021/05/23 13:51:33;;;;;;;2.15;1.27;;;;;;;18.34;46.09;100646.91;6166356;29;20256;-72
2021/05/23 13:54:37;;;;;;;91.50;53.55;;;;;;;18.27;46.58;100643.59;6165266;29;20194;-72
2021/05/23 13:57:41;;;;;;;4.07;2.65;;;;;;;18.13;47.05;100655.13;6165012;29;20226;-72
2021/05/23 14:00:46;;;;;;;3.35;1.30;;;;;;;17.73;47.09;100604.47;6166049;29;20188;-72
2021/05/23 14:03:50;;;;;;;4.25;1.05;;;;;;;17.84;48.38;100664.13;6164773;29;20476;-72
2021/05/23 14:06:54;;;;;;;1.38;1.23;;;;;;;17.96;48.42;100664.75;6165973;29;20219;-72
2021/05/23 14:09:58;;;;;;;6.00;1.10;;;;;;;17.98;49.03;100665.28;6165553;29;20192;-71
2021/05/23 14:13:02;;;;;;;2.13;1.25;;;;;;;17.75;48.98;100679.53;6164481;29;20195;-72
2021/05/23 14:16:07;;;;;;;2.85;0.93;;;;;;;17.89;48.14;100665.00;6165204;29;20198;-72
2021/05/23 14:19:12;;;;;;;2.28;1.10;;;;;;;17.49;47.82;100682.13;6165503;29;20191;-71
2021/05/23 14:22:16;;;;;;;2.42;0.90;;;;;;;17.38;48.59;100672.09;6164579;29;20485;-72
2021/05/23 14:25:20;;;;;;;5.47;3.83;;;;;;;17.04;49.94;100645.97;6164494;28;20187;-72
2021/05/23 14:28:24;;;;;;;19.52;12.82;;;;;;;17.15;50.60;100691.81;6164401;29;20215;-72
2021/05/23 14:31:28;;;;;;;1.55;1.30;;;;;;;17.37;50.38;100684.25;6164320;29;20479;-72
2021/05/23 14:34:33;;;;;;;1.73;0.90;;;;;;;17.36;50.05;100677.06;6164667;29;20187;-72
2021/05/23 14:37:36;;;;;;;1.02;1.02;;;;;;;17.22;50.15;100692.41;6165455;29;20304;-72
2021/05/23 14:40:40;;;;;;;1.67;1.50;;;;;;;17.19;50.20;100679.16;6165201;28;20262;-72